Time;durP1;ratioP1;P1;durP2;ratioP2;P2;SDS_P1;SDS_P2;PMS_P1;PMS_P2;Temp;Humidity;BMP_temperature;BMP_pressure;BME280_temperature;BME280_humidity;BME280_pressure;Samples;Min_cycle;Max_cycle;Signal;HPM_P1;HPM_P2
2023/09/15 00:01:39;;;;;;;0.90;0.90;;;;;13.30;96315.00;;;;5061243;28;20188;-62
2023/09/15 00:04:11;;;;;;;0.80;0.80;;;;;13.30;96319.00;;;;5059022;28;20861;-62
2023/09/15 00:06:40;;;;;;;2.87;1.30;;;;;13.40;96307.00;;;;5059791;28;20184;-61
2023/09/15 00:09:14;;;;;;;1.53;1.43;;;;;13.30;96309.00;;;;5059033;28;20192;-61
2023/09/15 00:11:42;;;;;;;0.60;0.60;;;;;13.40;96311.00;;;;5059223;28;20192;-62
2023/09/15 00:14:10;;;;;;;0.50;0.50;;;;;13.30;96317.00;;;;5059102;28;20294;-62
2023/09/15 00:16:40;;;;;;;0.83;0.83;;;;;13.30;96319.00;;;;5059479;28;20196;-61
2023/09/15 00:19:13;;;;;;;1.00;1.00;;;;;13.20;96311.00;;;;5058871;28;20216;-61
2023/09/15 00:21:41;;;;;;;0.80;0.80;;;;;13.20;96310.00;;;;5058475;28;20181;-61
2023/09/15 00:24:09;;;;;;;1.47;1.13;;;;;13.20;96308.00;;;;5058917;28;20219;-61
2023/09/15 00:26:37;;;;;;;0.70;0.70;;;;;13.20;96311.00;;;;5059047;28;20192;-61
2023/09/15 00:29:08;;;;;;;0.80;0.80;;;;;13.20;96311.00;;;;5059071;28;20526;-61
2023/09/15 00:31:38;;;;;;;0.60;0.60;;;;;13.20;96310.00;;;;5059631;28;20172;-62
2023/09/15 00:34:05;;;;;;;1.13;1.07;;;;;13.20;96304.00;;;;5059489;28;20223;-62
2023/09/15 00:36:34;;;;;;;1.03;1.03;;;;;13.10;96301.00;;;;5059988;28;20203;-62
2023/09/15 00:39:03;;;;;;;0.50;0.50;;;;;13.10;96299.00;;;;5042048;28;20226;-61
2023/09/15 00:41:32;;;;;;;0.47;0.47;;;;;13.10;96295.00;;;;5058877;28;20271;-61
2023/09/15 00:43:59;;;;;;;0.90;0.90;;;;;13.10;96304.00;;;;5059199;28;20223;-61
2023/09/15 00:46:28;;;;;;;1.07;1.07;;;;;13.00;96300.00;;;;5040664;28;20203;-61
2023/09/15 00:48:56;;;;;;;0.70;0.70;;;;;13.10;96268.00;;;;5058156;28;20199;-61
2023/09/15 00:51:24;;;;;;;0.97;0.97;;;;;13.00;96277.00;;;;5058355;28;20287;-62
2023/09/15 00:53:55;;;;;;;1.07;1.07;;;;;12.90;96283.00;;;;5040171;28;20227;-61
2023/09/15 00:56:23;;;;;;;0.80;0.80;;;;;12.90;96281.00;;;;5059628;28;20214;-61
2023/09/15 00:58:51;;;;;;;1.00;1.00;;;;;13.00;96281.00;;;;5058702;28;20228;-61
2023/09/15 01:01:19;;;;;;;0.50;0.50;;;;;13.10;96275.00;;;;5058913;28;20196;-61
2023/09/15 01:03:47;;;;;;;0.80;0.80;;;;;12.90;96285.00;;;;5058017;28;20217;-61
2023/09/15 01:06:18;;;;;;;1.57;0.97;;;;;12.80;96285.00;;;;5058413;28;20243;-61
2023/09/15 01:08:46;;;;;;;0.60;0.60;;;;;12.70;96272.00;;;;5057763;28;20172;-62
2023/09/15 01:11:16;;;;;;;0.70;0.70;;;;;12.70;96277.00;;;;5057991;28;20660;-62
2023/09/15 01:13:43;;;;;;;1.37;1.27;;;;;12.60;96274.00;;;;5058022;28;20204;-62
2023/09/15 01:16:19;;;;;;;0.70;0.70;;;;;12.70;96281.00;;;;5058030;28;20188;-61
2023/09/15 01:18:54;;;;;;;0.63;0.63;;;;;12.50;96272.00;;;;5057445;28;20204;-61
2023/09/15 01:21:53;;;;;;;0.80;0.80;;;;;12.40;96266.00;;;;5058086;28;20179;-61
2023/09/15 01:24:52;;;;;;;1.07;1.07;;;;;12.30;96267.00;;;;5058157;28;20216;-61
2023/09/15 01:27:46;;;;;;;0.80;0.80;;;;;12.50;96259.00;;;;5058750;28;20527;-61
2023/09/15 01:30:15;;;;;;;0.73;0.73;;;;;12.50;96259.00;;;;5058606;28;20168;-61
2023/09/15 01:32:44;;;;;;;0.80;0.80;;;;;12.50;96255.00;;;;5058936;28;20535;-61
2023/09/15 01:35:11;;;;;;;0.80;0.80;;;;;12.50;96258.00;;;;5058223;28;20216;-61
2023/09/15 01:37:39;;;;;;;1.00;1.00;;;;;12.60;96257.00;;;;5057637;28;20192;-61
2023/09/15 01:40:08;;;;;;;6.00;1.40;;;;;12.50;96255.00;;;;5058065;28;20571;-62
2023/09/15 01:42:35;;;;;;;1.23;1.13;;;;;12.40;96257.00;;;;5059770;28;20600;-62
2023/09/15 01:45:03;;;;;;;1.00;1.00;;;;;12.30;96259.00;;;;5059579;28;20219;-62
2023/09/15 01:47:33;;;;;;;1.17;1.17;;;;;12.50;96255.00;;;;5059280;28;20199;-62
2023/09/15 01:50:02;;;;;;;0.80;0.80;;;;;12.40;96251.00;;;;5059931;28;20196;-62
2023/09/15 01:52:29;;;;;;;0.60;0.60;;;;;12.40;96253.00;;;;5059648;28;20195;-62
2023/09/15 01:54:58;;;;;;;0.80;0.80;;;;;12.40;96253.00;;;;5040976;28;20294;-62
2023/09/15 01:57:27;;;;;;;0.93;0.93;;;;;12.50;96260.00;;;;5059234;28;20191;-65
2023/09/15 01:59:57;;;;;;;0.70;0.70;;;;;12.40;96261.00;;;;5057902;28;20219;-63
2023/09/15 02:02:24;;;;;;;0.60;0.60;;;;;12.30;96257.00;;;;5058987;28;20204;-62
2023/09/15 02:04:59;;;;;;;1.00;1.00;;;;;12.30;96250.00;;;;5059067;28;20226;-62
2023/09/15 02:07:26;;;;;;;1.37;1.37;;;;;12.30;96261.00;;;;5059197;28;20183;-62
2023/09/15 02:09:53;;;;;;;1.03;0.97;;;;;12.10;96264.00;;;;5040993;28;20200;-62
2023/09/15 02:12:21;;;;;;;1.00;1.00;;;;;12.10;96263.00;;;;5058771;28;20203;-62
2023/09/15 02:14:51;;;;;;;1.57;0.93;;;;;12.20;96261.00;;;;5058430;28;20286;-62
2023/09/15 02:17:19;;;;;;;0.70;0.70;;;;;12.20;96261.00;;;;5058979;28;20196;-62
2023/09/15 02:19:53;;;;;;;0.80;0.80;;;;;12.10;96262.00;;;;5058188;28;20243;-62
2023/09/15 02:22:23;;;;;;;0.60;0.60;;;;;12.10;96269.00;;;;5058461;28;20184;-62
2023/09/15 02:24:51;;;;;;;1.53;1.43;;;;;12.10;96267.00;;;;5057668;28;20216;-61
2023/09/15 02:27:18;;;;;;;0.77;0.77;;;;;12.00;96269.00;;;;5056756;28;20195;-62
2023/09/15 02:29:46;;;;;;;1.43;1.33;;;;;12.00;96257.00;;;;5056821;28;20211;-62
2023/09/15 02:32:16;;;;;;;0.70;0.70;;;;;12.00;96262.00;;;;5056837;28;20187;-63
2023/09/15 02:34:46;;;;;;;0.77;0.77;;;;;12.10;96256.00;;;;5058306;28;20322;-62
2023/09/15 02:37:21;;;;;;;1.57;1.47;;;;;12.10;96255.00;;;;5058201;28;20196;-62
2023/09/15 02:39:51;;;;;;;0.60;0.60;;;;;11.90;96251.00;;;;5057678;28;20196;-62
2023/09/15 02:42:21;;;;;;;2.10;2.00;;;;;11.90;96257.00;;;;5057914;28;20275;-62
2023/09/15 02:44:51;;;;;;;4.47;1.10;;;;;11.90;96248.00;;;;5057878;28;20216;-63
2023/09/15 02:47:19;;;;;;;0.90;0.90;;;;;11.90;96249.00;;;;5057504;28;20199;-62
2023/09/15 02:49:47;;;;;;;0.70;0.70;;;;;11.80;96250.00;;;;5057333;28;20245;-62
2023/09/15 02:52:14;;;;;;;1.07;1.07;;;;;11.90;96243.00;;;;5058425;28;20255;-62
2023/09/15 02:54:43;;;;;;;1.50;1.10;;;;;11.90;96251.00;;;;5057360;28;20218;-62
2023/09/15 02:57:11;;;;;;;1.00;1.00;;;;;11.60;96252.00;;;;5057628;28;20223;-63
2023/09/15 02:59:38;;;;;;;0.90;0.90;;;;;11.80;96248.00;;;;5058358;28;20215;-62
2023/09/15 03:02:12;;;;;;;0.80;0.80;;;;;11.90;96243.00;;;;5058053;28;20542;-62
2023/09/15 03:04:39;;;;;;;0.80;0.80;;;;;11.80;96243.00;;;;5058180;28;20214;-61
2023/09/15 03:07:07;;;;;;;0.57;0.57;;;;;11.70;96243.00;;;;5057174;28;20651;-62
2023/09/15 03:09:38;;;;;;;1.00;1.00;;;;;11.60;96245.00;;;;5058205;28;20196;-62
2023/09/15 03:12:08;;;;;;;0.60;0.60;;;;;11.50;96244.00;;;;5058095;28;20185;-63
2023/09/15 03:14:35;;;;;;;1.43;1.33;;;;;11.60;96250.00;;;;5039566;28;20322;-63
2023/09/15 03:17:03;;;;;;;1.33;1.23;;;;;11.60;96247.00;;;;5057988;28;20607;-61
2023/09/15 03:19:35;;;;;;;0.80;0.80;;;;;11.60;96242.00;;;;5057739;28;20204;-62
2023/09/15 03:22:04;;;;;;;4.37;1.47;;;;;11.50;96252.00;;;;5057596;28;20196;-62
2023/09/15 03:24:32;;;;;;;0.87;0.87;;;;;11.60;96247.00;;;;5057568;28;20222;-62
2023/09/15 03:27:04;;;;;;;0.90;0.90;;;;;11.60;96245.00;;;;5057758;28;20245;-62
2023/09/15 03:29:35;;;;;;;1.00;1.00;;;;;11.60;96245.00;;;;5057513;28;20203;-62
2023/09/15 03:32:05;;;;;;;0.90;0.90;;;;;11.50;96243.00;;;;5061078;28;20195;-63
2023/09/15 03:34:32;;;;;;;0.70;0.70;;;;;11.50;96241.00;;;;5061957;28;20582;-62
2023/09/15 03:37:02;;;;;;;0.90;0.90;;;;;11.50;96246.00;;;;5061287;28;20570;-62
2023/09/15 03:39:30;;;;;;;0.63;0.63;;;;;11.50;96233.00;;;;5043271;28;20223;-62
2023/09/15 03:41:57;;;;;;;1.37;1.37;;;;;11.40;96234.00;;;;5061591;28;20196;-63
2023/09/15 03:44:28;;;;;;;0.50;0.50;;;;;11.30;96238.00;;;;5061584;28;20222;-63
2023/09/15 03:46:59;;;;;;;1.63;1.53;;;;;11.50;96235.00;;;;5061747;28;20199;-61
2023/09/15 03:49:30;;;;;;;0.70;0.70;;;;;11.50;96231.00;;;;5061467;28;20180;-62
2023/09/15 03:51:57;;;;;;;0.67;0.67;;;;;11.50;96234.00;;;;5061997;28;20176;-63
2023/09/15 03:54:30;;;;;;;1.13;1.13;;;;;11.60;96231.00;;;;5043492;28;20216;-62
2023/09/15 03:56:57;;;;;;;1.10;1.10;;;;;11.50;96239.00;;;;5061544;28;20192;-62
2023/09/15 03:59:26;;;;;;;0.80;0.80;;;;;11.60;96231.00;;;;5060963;28;20224;-61
2023/09/15 04:01:58;;;;;;;0.63;0.63;;;;;11.60;96236.00;;;;5061150;28;20256;-63
2023/09/15 04:04:26;;;;;;;1.03;1.03;;;;;11.50;96244.00;;;;5061088;28;20216;-62
2023/09/15 04:06:55;;;;;;;0.90;0.90;;;;;11.50;96238.00;;;;5061350;28;20189;-61
2023/09/15 04:09:25;;;;;;;0.80;0.80;;;;;11.50;96237.00;;;;5061524;28;20634;-62
2023/09/15 04:11:52;;;;;;;0.90;0.90;;;;;11.40;96231.00;;;;5061721;28;20191;-62
2023/09/15 04:14:20;;;;;;;0.80;0.80;;;;;11.40;96233.00;;;;5044023;28;20220;-63
2023/09/15 04:16:47;;;;;;;0.90;0.90;;;;;11.30;96223.00;;;;5062624;28;20192;-62
2023/09/15 04:19:15;;;;;;;1.77;1.67;;;;;11.30;96223.00;;;;5061353;28;20223;-62
2023/09/15 04:21:52;;;;;;;1.07;1.07;;;;;11.30;96229.00;;;;5042864;28;20656;-61
2023/09/15 04:24:20;;;;;;;0.90;0.90;;;;;11.20;96233.00;;;;5061026;28;20212;-63
2023/09/15 04:26:47;;;;;;;1.10;1.10;;;;;11.40;96222.00;;;;5043405;28;20199;-62
2023/09/15 04:29:14;;;;;;;0.80;0.80;;;;;11.50;96227.00;;;;5061084;28;20278;-63
2023/09/15 04:31:47;;;;;;;1.07;0.93;;;;;11.50;96218.00;;;;5061385;28;20271;-62
2023/09/15 04:34:15;;;;;;;0.73;0.73;;;;;11.50;96222.00;;;;5061097;28;20216;-62
2023/09/15 04:36:44;;;;;;;1.07;1.03;;;;;11.50;96228.00;;;;5061713;28;20291;-61
2023/09/15 04:39:13;;;;;;;0.90;0.90;;;;;11.60;96228.00;;;;5043258;28;20237;-62
2023/09/15 04:41:43;;;;;;;0.70;0.70;;;;;11.60;96218.00;;;;5060672;28;20192;-62
2023/09/15 04:44:11;;;;;;;1.53;1.43;;;;;11.70;96229.00;;;;5060068;28;20223;-62
2023/09/15 04:46:38;;;;;;;0.80;0.80;;;;;11.80;96220.00;;;;5042358;28;20200;-62
2023/09/15 04:49:14;;;;;;;0.60;0.60;;;;;11.80;96230.00;;;;5058078;28;20196;-62
2023/09/15 04:51:45;;;;;;;0.80;0.80;;;;;11.70;96227.00;;;;5058435;28;20180;-62
2023/09/15 04:54:13;;;;;;;0.70;0.70;;;;;11.60;96221.00;;;;5058488;28;20219;-62
2023/09/15 04:56:43;;;;;;;1.30;1.23;;;;;11.70;96221.00;;;;5058795;28;20267;-62
2023/09/15 04:59:15;;;;;;;0.90;0.90;;;;;11.50;96215.00;;;;5040694;28;20212;-62
2023/09/15 05:01:45;;;;;;;0.60;0.60;;;;;11.50;96214.00;;;;5060360;28;20246;-62
2023/09/15 05:04:13;;;;;;;6.87;4.00;;;;;11.30;96215.00;;;;5059989;28;20280;-62
2023/09/15 05:06:41;;;;;;;5.63;4.13;;;;;11.40;96218.00;;;;5059727;28;20279;-62
2023/09/15 05:09:11;;;;;;;1.97;1.87;;;;;11.40;96219.00;;;;5059590;28;20218;-62
2023/09/15 05:11:38;;;;;;;0.70;0.70;;;;;11.40;96227.00;;;;5059358;28;20229;-62
2023/09/15 05:14:08;;;;;;;1.27;1.27;;;;;11.30;96221.00;;;;5059428;28;20582;-62
2023/09/15 05:16:35;;;;;;;1.37;1.07;;;;;11.30;96223.00;;;;5059704;28;20192;-62
2023/09/15 05:19:02;;;;;;;0.80;0.80;;;;;11.30;96232.00;;;;5059205;28;20191;-62
2023/09/15 05:21:30;;;;;;;1.60;1.10;;;;;11.30;96220.00;;;;5059335;28;20192;-62
2023/09/15 05:23:57;;;;;;;1.77;1.67;;;;;11.40;96223.00;;;;5060321;28;20204;-62
2023/09/15 05:26:26;;;;;;;1.50;1.40;;;;;11.50;96247.00;;;;5059847;28;20192;-62
2023/09/15 05:28:53;;;;;;;0.67;0.67;;;;;11.40;96240.00;;;;5060405;28;20196;-62
2023/09/15 05:31:25;;;;;;;0.90;0.90;;;;;11.50;96243.00;;;;5059453;28;20198;-62
2023/09/15 05:33:53;;;;;;;0.87;0.87;;;;;11.50;96243.00;;;;5060078;28;20686;-61
2023/09/15 05:36:22;;;;;;;1.33;1.33;;;;;11.50;96239.00;;;;5060349;28;20651;-61
2023/09/15 05:38:52;;;;;;;1.10;1.03;;;;;11.60;96227.00;;;;5060469;28;20578;-61
2023/09/15 05:41:20;;;;;;;0.70;0.70;;;;;11.80;96237.00;;;;5060390;28;20678;-62
2023/09/15 05:43:49;;;;;;;1.00;1.00;;;;;11.70;96235.00;;;;5059743;28;20714;-62
2023/09/15 05:46:19;;;;;;;1.33;1.33;;;;;11.70;96236.00;;;;5059073;28;20216;-62
2023/09/15 05:48:46;;;;;;;0.70;0.70;;;;;11.70;96246.00;;;;5058779;28;20724;-62
2023/09/15 05:51:13;;;;;;;0.70;0.70;;;;;11.80;96239.00;;;;5057342;28;20651;-65
2023/09/15 05:53:41;;;;;;;1.13;1.13;;;;;11.90;96240.00;;;;5057321;28;20216;-64
2023/09/15 05:56:08;;;;;;;4.43;1.17;;;;;11.80;96244.00;;;;5057070;28;20192;-64
2023/09/15 05:58:36;;;;;;;0.87;0.87;;;;;12.00;96241.00;;;;5057083;28;20208;-64
2023/09/15 06:01:06;;;;;;;0.70;0.70;;;;;12.10;96245.00;;;;5057524;28;20216;-65
2023/09/15 06:03:33;;;;;;;1.60;1.50;;;;;12.10;96246.00;;;;5038771;28;20223;-65
2023/09/15 06:06:01;;;;;;;1.00;1.00;;;;;12.20;96251.00;;;;5056334;28;20528;-64
2023/09/15 06:08:28;;;;;;;1.00;1.00;;;;;12.30;96246.00;;;;5057155;28;20601;-62
2023/09/15 06:10:56;;;;;;;2.53;1.10;;;;;12.50;96240.00;;;;5057906;28;20200;-62
2023/09/15 06:13:24;;;;;;;0.60;0.60;;;;;12.60;96247.00;;;;5057279;28;20204;-62
2023/09/15 06:15:52;;;;;;;1.10;1.10;;;;;12.80;96248.00;;;;5057664;28;20196;-62
2023/09/15 06:18:21;;;;;;;0.97;0.97;;;;;12.80;96243.00;;;;5056830;28;20196;-62
2023/09/15 06:20:49;;;;;;;1.53;1.43;;;;;12.90;96252.00;;;;5057179;28;20244;-63
2023/09/15 06:23:16;;;;;;;0.73;0.73;;;;;12.90;96248.00;;;;5057209;28;20192;-62
2023/09/15 06:25:46;;;;;;;1.33;1.23;;;;;12.80;96244.00;;;;5056919;28;20234;-62
2023/09/15 06:28:16;;;;;;;1.00;1.00;;;;;12.90;96248.00;;;;5038741;28;20222;-62
2023/09/15 06:30:45;;;;;;;5.53;1.23;;;;;12.90;96243.00;;;;5056397;28;20193;-62
2023/09/15 06:33:15;;;;;;;1.13;1.13;;;;;13.10;96248.00;;;;5056811;28;20631;-62
2023/09/15 06:35:53;;;;;;;1.13;1.10;;;;;13.00;96244.00;;;;5056439;28;20258;-62
2023/09/15 06:38:23;;;;;;;1.00;1.00;;;;;13.10;96237.00;;;;5056396;28;20184;-62
2023/09/15 06:40:50;;;;;;;1.20;1.20;;;;;13.20;96240.00;;;;5056253;28;20691;-63
2023/09/15 06:43:18;;;;;;;0.83;0.83;;;;;13.30;96238.00;;;;5056128;28;20192;-62
2023/09/15 06:45:48;;;;;;;1.33;1.23;;;;;13.30;96232.00;;;;5056038;28;20681;-62
2023/09/15 06:48:16;;;;;;;0.90;0.90;;;;;13.40;96239.00;;;;5037329;28;20200;-62
2023/09/15 06:50:43;;;;;;;0.70;0.70;;;;;13.50;96239.00;;;;5054754;28;20188;-62
2023/09/15 06:53:12;;;;;;;2.27;1.70;;;;;13.50;96236.00;;;;5054212;28;20188;-62
2023/09/15 06:55:39;;;;;;;0.70;0.70;;;;;13.50;96235.00;;;;5054503;28;20211;-62
2023/09/15 06:58:07;;;;;;;0.60;0.60;;;;;13.60;96231.00;;;;5054536;28;20552;-62
2023/09/15 07:00:34;;;;;;;1.47;1.40;;;;;13.50;96222.00;;;;5054165;28;20212;-62
2023/09/15 07:03:04;;;;;;;1.17;1.17;;;;;13.50;96230.00;;;;5053859;28;20196;-62
2023/09/15 07:05:34;;;;;;;1.13;1.13;;;;;13.50;96218.00;;;;5053880;28;20298;-63
2023/09/15 07:08:02;;;;;;;0.80;0.80;;;;;13.60;96221.00;;;;5056399;28;20532;-62
2023/09/15 07:10:33;;;;;;;1.13;1.13;;;;;13.80;96223.00;;;;5038361;28;20483;-62
2023/09/15 07:13:01;;;;;;;0.80;0.80;;;;;13.90;96233.00;;;;5055580;28;20259;-62
2023/09/15 07:15:35;;;;;;;0.80;0.80;;;;;13.90;96227.00;;;;5055567;28;20208;-62
2023/09/15 07:18:05;;;;;;;1.70;1.60;;;;;14.20;96221.00;;;;5054951;28;20186;-62
2023/09/15 07:20:33;;;;;;;1.13;1.13;;;;;14.20;96223.00;;;;5053920;28;20505;-62
2023/09/15 07:23:00;;;;;;;0.77;0.77;;;;;14.30;96220.00;;;;5053594;28;20279;-62
2023/09/15 07:25:31;;;;;;;0.93;0.93;;;;;14.40;96220.00;;;;5053494;28;20218;-62
2023/09/15 07:28:03;;;;;;;1.10;1.10;;;;;14.30;96218.00;;;;5053650;28;20219;-62
2023/09/15 07:30:31;;;;;;;1.43;1.33;;;;;14.50;96219.00;;;;5053248;28;20589;-62
2023/09/15 07:32:59;;;;;;;0.73;0.73;;;;;14.50;96215.00;;;;5055354;28;20596;-62
2023/09/15 07:35:27;;;;;;;0.80;0.80;;;;;14.80;96218.00;;;;5053903;28;20212;-62
2023/09/15 07:38:02;;;;;;;0.80;0.80;;;;;14.80;96173.00;;;;5053671;28;20249;-62
2023/09/15 07:40:32;;;;;;;1.13;1.13;;;;;14.90;96216.00;;;;5055272;28;20238;-62
2023/09/15 07:43:04;;;;;;;1.07;1.07;;;;;15.00;96223.00;;;;5055004;28;20247;-62
2023/09/15 07:45:32;;;;;;;0.97;0.97;;;;;15.20;96216.00;;;;5054979;28;20211;-62
2023/09/15 07:48:02;;;;;;;1.53;1.43;;;;;15.20;96209.00;;;;5054233;28;20207;-63
2023/09/15 07:50:33;;;;;;;27.53;2.37;;;;;15.20;96213.00;;;;5054447;28;20184;-63
2023/09/15 07:53:04;;;;;;;0.80;0.80;;;;;15.50;96219.00;;;;5054872;28;20175;-63
2023/09/15 07:55:31;;;;;;;0.70;0.70;;;;;15.60;96210.00;;;;5054877;28;20575;-63
2023/09/15 07:57:59;;;;;;;4.17;1.83;;;;;15.80;96212.00;;;;5055258;28;20614;-63
2023/09/15 08:00:28;;;;;;;0.53;0.53;;;;;16.00;96210.00;;;;5055239;28;20295;-63
2023/09/15 08:02:58;;;;;;;1.60;1.50;;;;;16.20;96213.00;;;;5055928;28;20275;-61
2023/09/15 08:05:25;;;;;;;0.60;0.60;;;;;16.40;96210.00;;;;5055509;28;20262;-62
2023/09/15 08:07:54;;;;;;;2.07;1.53;;;;;16.60;96214.00;;;;5055412;28;20196;-62
2023/09/15 08:10:23;;;;;;;1.80;1.70;;;;;16.80;96206.00;;;;5055075;28;20188;-63
2023/09/15 08:12:52;;;;;;;2.03;1.70;;;;;16.90;96214.00;;;;5055205;28;20739;-62
2023/09/15 08:15:20;;;;;;;1.73;1.47;;;;;16.90;96211.00;;;;5055781;28;20284;-63
2023/09/15 08:17:50;;;;;;;1.63;1.53;;;;;17.00;96208.00;;;;5056158;28;20614;-62
2023/09/15 08:20:18;;;;;;;0.97;0.97;;;;;17.20;96207.00;;;;5058735;28;20243;-62
2023/09/15 08:22:46;;;;;;;1.33;1.23;;;;;17.10;96198.00;;;;5059587;28;20192;-62
2023/09/15 08:25:14;;;;;;;1.03;1.03;;;;;17.30;96210.00;;;;5040925;28;20243;-62
2023/09/15 08:27:45;;;;;;;0.90;0.90;;;;;17.60;96202.00;;;;5058472;28;20640;-62
2023/09/15 08:30:14;;;;;;;2.93;1.67;;;;;17.60;96200.00;;;;5058345;28;20247;-62
2023/09/15 08:32:44;;;;;;;3.07;1.67;;;;;17.80;96203.00;;;;5058446;28;20279;-62
2023/09/15 08:35:13;;;;;;;16.03;1.27;;;;;17.90;96200.00;;;;5058316;28;20212;-62
2023/09/15 08:37:40;;;;;;;1.77;1.67;;;;;18.20;96192.00;;;;5058525;28;20200;-62
2023/09/15 08:40:10;;;;;;;0.97;0.97;;;;;18.20;96195.00;;;;5040510;28;20671;-63
2023/09/15 08:42:38;;;;;;;1.63;1.53;;;;;18.40;96196.00;;;;5040146;28;20549;-63
2023/09/15 08:45:07;;;;;;;1.30;1.20;;;;;18.50;96195.00;;;;5057701;28;20286;-62
2023/09/15 08:47:39;;;;;;;1.63;1.20;;;;;18.60;96198.00;;;;5058108;28;20188;-62
2023/09/15 08:50:09;;;;;;;1.30;1.30;;;;;18.70;96194.00;;;;5058323;28;20207;-63
2023/09/15 08:52:38;;;;;;;1.77;1.23;;;;;18.90;96184.00;;;;5057975;28;20242;-63
2023/09/15 08:55:07;;;;;;;1.10;1.10;;;;;19.10;96187.00;;;;5057531;28;20223;-63
2023/09/15 08:57:36;;;;;;;1.53;1.43;;;;;19.30;96185.00;;;;5058025;28;20203;-63
2023/09/15 09:00:07;;;;;;;1.67;1.57;;;;;19.30;96190.00;;;;5057755;28;20192;-63
2023/09/15 09:02:35;;;;;;;1.53;1.43;;;;;19.50;96179.00;;;;5057743;28;20200;-63
2023/09/15 09:05:02;;;;;;;1.77;1.67;;;;;19.50;96185.00;;;;5058260;28;20216;-62
2023/09/15 09:07:31;;;;;;;0.67;0.67;;;;;19.50;96192.00;;;;5041216;28;20200;-63
2023/09/15 09:10:00;;;;;;;1.00;1.00;;;;;19.60;96184.00;;;;5057273;28;20200;-63
2023/09/15 09:12:28;;;;;;;1.70;1.60;;;;;19.80;96179.00;;;;5057630;28;20267;-62
2023/09/15 09:14:57;;;;;;;0.93;0.93;;;;;19.90;96185.00;;;;5057531;28;20307;-62
2023/09/15 09:17:24;;;;;;;1.77;1.67;;;;;20.00;96182.00;;;;5057049;28;20283;-63
2023/09/15 09:19:52;;;;;;;1.57;1.47;;;;;19.90;96177.00;;;;5055958;28;20291;-63
2023/09/15 09:22:20;;;;;;;1.87;1.77;;;;;20.20;96180.00;;;;5055585;28;20219;-63
2023/09/15 09:24:55;;;;;;;0.97;0.97;;;;;20.40;96168.00;;;;5056029;28;20212;-63
2023/09/15 09:27:31;;;;;;;2.07;1.97;;;;;20.60;96172.00;;;;5056996;28;20180;-63
2023/09/15 09:30:00;;;;;;;1.40;1.40;;;;;20.80;96167.00;;;;5056453;28;20219;-62
2023/09/15 09:32:30;;;;;;;1.67;1.57;;;;;20.90;96177.00;;;;5056911;28;20192;-62
2023/09/15 09:34:57;;;;;;;1.07;1.07;;;;;20.90;96171.00;;;;5056802;28;20216;-63
2023/09/15 09:37:26;;;;;;;1.17;1.07;;;;;20.90;96174.00;;;;5056874;28;20577;-63
2023/09/15 09:39:54;;;;;;;1.55;1.45;;;;;21.00;96174.00;;;;5056629;28;20200;-63
2023/09/15 09:42:26;;;;;;;1.67;1.57;;;;;21.10;96176.00;;;;5057084;28;20208;-63
2023/09/15 09:44:54;;;;;;;1.77;1.67;;;;;21.30;96173.00;;;;5056678;28;20216;-63
2023/09/15 09:47:25;;;;;;;1.10;1.10;;;;;21.40;96167.00;;;;5056329;28;20200;-63
2023/09/15 09:49:53;;;;;;;1.58;1.45;;;;;21.40;96172.00;;;;5056392;28;20196;-63
2023/09/15 09:52:22;;;;;;;2.00;1.73;;;;;21.40;96165.00;;;;5056848;28;20208;-63
2023/09/15 09:54:51;;;;;;;1.92;1.02;;;;;21.50;96165.00;;;;5056250;28;20774;-63
2023/09/15 09:57:21;;;;;;;0.88;0.88;;;;;21.80;96160.00;;;;5056423;28;20376;-63
2023/09/15 09:59:49;;;;;;;0.70;0.65;;;;;22.10;96161.00;;;;5056490;28;20218;-63
2023/09/15 10:02:18;;;;;;;0.90;0.90;;;;;22.30;96155.00;;;;5056528;28;20691;-63
2023/09/15 10:04:46;;;;;;;1.17;1.13;;;;;22.60;96155.00;;;;5055598;28;20236;-63
2023/09/15 10:07:17;;;;;;;2.45;1.40;;;;;22.40;96146.00;;;;5054890;28;20261;-63
2023/09/15 10:09:45;;;;;;;1.55;1.35;;;;;22.70;96147.00;;;;5056149;28;20608;-63
2023/09/15 10:12:14;;;;;;;1.42;1.33;;;;;22.50;96137.00;;;;5055447;28;20188;-63
2023/09/15 10:14:41;;;;;;;1.73;1.63;;;;;22.80;96134.00;;;;5055581;28;20285;-63
2023/09/15 10:17:10;;;;;;;1.17;1.17;;;;;22.60;96135.00;;;;5055920;28;20196;-63
2023/09/15 10:19:42;;;;;;;1.67;1.58;;;;;22.60;96135.00;;;;5056125;28;20188;-63
2023/09/15 10:22:10;;;;;;;1.15;1.05;;;;;22.50;96130.00;;;;5056449;28;20223;-63
2023/09/15 10:24:42;;;;;;;4.60;2.15;;;;;22.50;96127.00;;;;5055859;28;20680;-63
2023/09/15 10:27:10;;;;;;;4.28;2.10;;;;;23.00;96131.00;;;;5037718;28;20259;-63
2023/09/15 10:29:39;;;;;;;1.65;1.55;;;;;23.20;96125.00;;;;5055967;28;20362;-63
2023/09/15 10:32:09;;;;;;;0.93;0.90;;;;;23.20;96117.00;;;;5055712;28;20553;-63
2023/09/15 10:34:36;;;;;;;1.02;1.02;;;;;23.30;96113.00;;;;5056003;28;20212;-63
2023/09/15 10:37:04;;;;;;;1.33;1.27;;;;;23.70;96104.00;;;;5055602;28;20199;-63
2023/09/15 10:39:38;;;;;;;0.90;0.90;;;;;23.70;96109.00;;;;5055169;28;20192;-64
2023/09/15 10:42:07;;;;;;;0.90;0.90;;;;;23.70;96105.00;;;;5055036;28;20648;-63
2023/09/15 10:44:35;;;;;;;1.80;1.70;;;;;24.00;96104.00;;;;5055870;28;20211;-64
2023/09/15 10:47:03;;;;;;;1.58;1.35;;;;;24.30;96103.00;;;;5055413;28;20531;-64
2023/09/15 10:49:32;;;;;;;1.35;1.30;;;;;24.10;96110.00;;;;5054810;28;20200;-63
2023/09/15 10:52:02;;;;;;;1.00;1.00;;;;;24.10;96108.00;;;;5054376;28;20199;-63
2023/09/15 10:54:32;;;;;;;1.17;1.08;;;;;24.20;96111.00;;;;5054530;28;20764;-67
2023/09/15 10:57:01;;;;;;;1.10;1.10;;;;;24.50;96102.00;;;;5053897;28;20753;-67
2023/09/15 10:59:29;;;;;;;1.30;1.25;;;;;24.60;96094.00;;;;5053973;28;20196;-67
2023/09/15 11:01:57;;;;;;;1.02;1.02;;;;;24.50;96098.00;;;;5054163;28;20569;-67
2023/09/15 11:04:25;;;;;;;1.23;1.20;;;;;24.90;96089.00;;;;5054489;28;20220;-67
2023/09/15 11:06:54;;;;;;;1.00;1.00;;;;;25.00;96090.00;;;;5054602;28;20199;-63
2023/09/15 11:09:23;;;;;;;1.05;1.05;;;;;25.20;96087.00;;;;5055743;28;20549;-63
2023/09/15 11:11:52;;;;;;;1.33;1.30;;;;;25.10;96081.00;;;;5056285;28;20214;-63
2023/09/15 11:14:21;;;;;;;1.60;0.98;;;;;25.30;96093.00;;;;5038151;28;20226;-62
2023/09/15 11:16:52;;;;;;;2.15;1.55;;;;;25.50;96082.00;;;;5056225;28;20282;-62
2023/09/15 11:19:23;;;;;;;0.90;0.90;;;;;26.00;96083.00;;;;5055870;28;20271;-63
2023/09/15 11:21:51;;;;;;;1.00;1.00;;;;;26.20;96086.00;;;;5056009;28;20207;-63
2023/09/15 11:24:20;;;;;;;0.85;0.85;;;;;26.00;96085.00;;;;5055573;28;20254;-63
2023/09/15 11:26:49;;;;;;;2.17;1.15;;;;;26.10;96080.00;;;;5056223;28;20221;-62
2023/09/15 11:29:24;;;;;;;1.08;1.08;;;;;26.10;96074.00;;;;5055346;28;20254;-63
2023/09/15 11:31:53;;;;;;;1.20;1.10;;;;;26.20;96073.00;;;;5055433;28;20204;-63
2023/09/15 11:34:21;;;;;;;1.38;1.33;;;;;25.70;96078.00;;;;5055169;28;20239;-63
2023/09/15 11:36:50;;;;;;;0.70;0.70;;;;;26.50;96070.00;;;;5055193;28;20192;-63
2023/09/15 11:39:19;;;;;;;1.08;1.02;;;;;26.50;96075.00;;;;5055491;28;20199;-63
2023/09/15 11:41:53;;;;;;;1.10;1.10;;;;;26.50;96094.00;;;;5055204;28;20261;-62
2023/09/15 11:44:24;;;;;;;0.82;0.82;;;;;26.00;96079.00;;;;5055027;28;20302;-62
2023/09/15 11:46:52;;;;;;;0.80;0.80;;;;;25.90;96089.00;;;;5038055;28;20242;-62
2023/09/15 11:49:21;;;;;;;0.98;0.98;;;;;25.90;96083.00;;;;5055934;28;20535;-62
2023/09/15 11:51:50;;;;;;;1.00;1.00;;;;;25.80;96081.00;;;;5056264;28;20222;-61
2023/09/15 11:54:19;;;;;;;1.77;1.67;;;;;26.00;96078.00;;;;5058656;28;20714;-61
2023/09/15 11:56:47;;;;;;;1.58;1.48;;;;;25.50;96083.00;;;;5059540;28;20277;-62
2023/09/15 11:59:16;;;;;;;1.13;1.13;;;;;25.50;96077.00;;;;5058923;28;20200;-62
2023/09/15 12:01:46;;;;;;;1.90;1.50;;;;;25.90;96053.00;;;;5059388;28;20212;-63
2023/09/15 12:04:14;;;;;;;1.17;1.13;;;;;26.60;96053.00;;;;5059857;28;20212;-62
2023/09/15 12:06:42;;;;;;;0.98;0.98;;;;;26.20;96046.00;;;;5059517;28;20192;-62
2023/09/15 12:09:12;;;;;;;1.10;1.10;;;;;26.40;96064.00;;;;5059051;28;20200;-62
2023/09/15 12:11:44;;;;;;;1.40;1.30;;;;;26.50;96038.00;;;;5059783;28;20270;-63
2023/09/15 12:14:13;;;;;;;3.88;2.25;;;;;26.80;96041.00;;;;5059580;28;20617;-62
2023/09/15 12:16:43;;;;;;;1.63;1.52;;;;;27.20;96043.00;;;;5059308;28;20286;-63
2023/09/15 12:19:13;;;;;;;1.63;1.52;;;;;27.70;96031.00;;;;5058642;28;20219;-62
2023/09/15 12:21:52;;;;;;;1.35;1.25;;;;;28.00;96036.00;;;;5058692;28;20227;-62
2023/09/15 12:24:20;;;;;;;1.10;1.05;;;;;27.70;96038.00;;;;5059050;28;20223;-62
2023/09/15 12:26:50;;;;;;;0.80;0.80;;;;;27.70;96034.00;;;;5059352;28;20504;-64
2023/09/15 12:29:18;;;;;;;0.98;0.98;;;;;27.50;96049.00;;;;5059294;28;20538;-61